LKMT/OSR METAR and TAF weather

Enter ICAO airport designator
Station Type Date Time Source
LKMT METAR 2021/04/13 07:30 UTC NOAA

LKMT 130730Z 02011KT 9999 OVC008 01/00 Q1026 NOSIG


Station Type Date Time Source
LKMT Decoded METAR 2021/04/13 07:30 UTC NOAA

Ostrava / Mosnov, Czech Republic (LKMT) 49-41N 018-07E 256M
Apr 13, 2021 - 03:30 AM EDT / 2021.04.13 0730 UTC
Wind: from the NNE (020 degrees) at 13 MPH (11 KT):0
Visibility: greater than 7 mile(s):0
Sky conditions: overcast
Temperature: 33 F (1 C)
Windchill: 23 F (-5 C):1
Dew Point: 32 F (0 C)
Relative Humidity: 93%
Pressure (altimeter): 30.30 in. Hg (1026 hPa)
ob: LKMT 130730Z 02011KT 9999 OVC008 01/00 Q1026 NOSIG
cycle: 7

Station Type Date Time Source
LKMT TAF 2021/04/13 06:07 UTC NOAA

TAF LKMT 130500Z 1306/1412 01010KT 7000 -RASN OVC015
TEMPO 1306/1412 4000 SNRA OVC011 PROB30
TEMPO 1306/1412 2000 SN OVC005
TEMPO 1309/1320 03018KT
TEMPO 1406/1412 36014G24KT

Example: see airport list